createdAt,value
2023-04-22T00:02:49.910Z,1004.40
2023-04-22T00:05:57.872Z,1004.33
2023-04-22T00:08:57.560Z,1004.30
2023-04-22T00:12:06.547Z,1004.29
2023-04-22T00:15:14.234Z,1004.25
2023-04-22T00:18:21.580Z,1004.21
2023-04-22T00:21:30.702Z,1004.19
2023-04-22T00:24:38.210Z,1004.28
2023-04-22T00:27:45.865Z,1004.07
2023-04-22T00:30:54.701Z,1004.15
2023-04-22T00:34:02.098Z,1004.08
2023-04-22T00:37:09.920Z,1004.11
2023-04-22T00:40:18.881Z,1004.08
2023-04-22T00:43:26.139Z,1003.98
2023-04-22T00:46:33.893Z,1004.01
2023-04-22T00:49:41.333Z,1003.91
2023-04-22T00:52:50.518Z,1003.96
2023-04-22T00:55:58.183Z,1003.96
2023-04-22T00:59:05.795Z,1003.84
2023-04-22T01:02:14.659Z,1003.81
2023-04-22T01:05:22.011Z,1003.96
2023-04-22T01:08:29.804Z,1003.95
2023-04-22T01:11:38.759Z,1003.93
2023-04-22T01:14:46.088Z,1003.94
2023-04-22T01:17:53.669Z,1003.88
2023-04-22T01:21:02.130Z,1003.90
2023-04-22T01:24:10.272Z,1003.91
2023-04-22T01:27:18.026Z,1003.88
2023-04-22T01:30:25.232Z,1003.84
2023-04-22T01:33:34.432Z,1003.80
2023-04-22T01:36:42.213Z,1003.87
2023-04-22T01:39:49.702Z,1003.92
2023-04-22T01:42:58.859Z,1003.85
2023-04-22T01:46:06.230Z,1003.84
2023-04-22T01:49:13.597Z,1003.91
2023-04-22T01:52:22.664Z,1003.83
2023-04-22T01:55:30.093Z,1003.93
2023-04-22T01:58:37.573Z,1003.95
2023-04-22T02:01:46.354Z,1003.91
2023-04-22T02:04:53.715Z,1003.82
2023-04-22T02:08:01.054Z,1003.84
2023-04-22T02:11:09.778Z,1003.89
2023-04-22T02:14:17.408Z,1003.89
2023-04-22T02:17:24.945Z,1003.88
2023-04-22T02:20:31.999Z,1003.87
2023-04-22T02:23:41.203Z,1003.82
2023-04-22T02:26:48.394Z,1003.88
2023-04-22T02:29:56.138Z,1003.92
2023-04-22T02:33:05.378Z,1003.82
2023-04-22T02:36:12.869Z,1003.78
2023-04-22T02:39:20.278Z,1003.81
2023-04-22T02:42:29.627Z,1003.82
2023-04-22T02:45:37.122Z,1003.77
2023-04-22T02:48:44.543Z,1003.74
2023-04-22T02:51:53.397Z,1003.69
2023-04-22T02:55:01.071Z,1003.64
2023-04-22T02:58:08.505Z,1003.71
2023-04-22T03:01:16.059Z,1003.65
2023-04-22T03:04:25.621Z,1003.52
2023-04-22T03:07:33.387Z,1003.47
2023-04-22T03:10:41.032Z,1003.50
2023-04-22T03:13:49.955Z,1003.43
2023-04-22T03:16:57.231Z,1003.46
2023-04-22T03:20:05.289Z,1003.40
2023-04-22T03:23:14.566Z,1003.44
2023-04-22T03:26:21.642Z,1003.38
2023-04-22T03:29:29.383Z,1003.37
2023-04-22T03:32:38.895Z,1003.39
2023-04-22T03:35:46.078Z,1003.43
2023-04-22T03:38:53.915Z,1003.44
2023-04-22T03:42:01.257Z,1003.41
2023-04-22T03:45:10.046Z,1003.34
2023-04-22T03:48:17.707Z,1003.38
2023-04-22T03:51:25.086Z,1003.31
2023-04-22T03:54:33.929Z,1003.33
2023-04-22T03:57:41.571Z,1003.25
2023-04-22T04:00:48.732Z,1003.23
2023-04-22T04:03:57.756Z,1003.36
2023-04-22T04:07:05.202Z,1003.28
2023-04-22T04:10:12.921Z,1003.40
2023-04-22T04:13:21.737Z,1003.33
2023-04-22T04:16:29.183Z,1003.38
2023-04-22T04:19:36.585Z,1003.40
2023-04-22T04:22:44.069Z,1003.43
2023-04-22T04:25:52.553Z,1003.46
2023-04-22T04:29:00.360Z,1003.44
2023-04-22T04:32:08.108Z,1003.51
2023-04-22T04:35:16.640Z,1003.47
2023-04-22T04:38:24.553Z,1003.48
2023-04-22T04:41:31.964Z,1003.48
2023-04-22T04:44:40.715Z,1003.49
2023-04-22T04:47:48.581Z,1003.49
2023-04-22T04:50:56.078Z,1003.49
2023-04-22T04:54:04.900Z,1003.46
2023-04-22T04:57:12.680Z,1003.50
2023-04-22T05:00:20.089Z,1003.43
2023-04-22T05:03:29.142Z,1003.39
2023-04-22T05:06:37.140Z,1003.35
2023-04-22T05:09:44.987Z,1003.37
2023-04-22T05:12:52.789Z,1003.34
2023-04-22T05:16:01.592Z,1003.36
2023-04-22T05:19:09.175Z,1003.39
2023-04-22T05:22:17.426Z,1003.29
2023-04-22T05:25:26.464Z,1003.16
2023-04-22T05:28:33.976Z,1003.24
2023-04-22T05:31:41.438Z,1003.25
2023-04-22T05:34:50.224Z,1003.31
2023-04-22T05:37:58.002Z,1003.28
2023-04-22T05:41:05.208Z,1003.18
2023-04-22T05:44:14.517Z,1003.20
2023-04-22T05:47:22.821Z,1003.24
2023-04-22T05:50:30.079Z,1003.24
2023-04-22T05:53:37.786Z,1003.20
2023-04-22T05:56:46.813Z,1003.23
2023-04-22T05:59:54.464Z,1003.15
2023-04-22T06:03:01.948Z,1003.15
2023-04-22T06:06:11.006Z,1003.13
2023-04-22T06:09:19.331Z,1003.18
2023-04-22T06:12:26.801Z,1003.15
2023-04-22T06:15:35.423Z,1003.22
2023-04-22T06:18:43.252Z,1003.12
2023-04-22T06:21:50.684Z,1003.11
2023-04-22T06:24:59.725Z,1003.13
2023-04-22T06:28:07.585Z,1003.20
2023-04-22T06:31:15.786Z,1003.12
2023-04-22T06:34:22.945Z,1003.12
2023-04-22T06:37:32.620Z,1003.08
2023-04-22T06:40:39.612Z,1003.08
2023-04-22T06:43:47.680Z,1003.15
2023-04-22T06:46:58.296Z,1003.16
2023-04-22T06:50:05.915Z,1003.09
2023-04-22T06:53:13.489Z,1002.99
2023-04-22T06:56:22.159Z,1002.91
2023-04-22T06:59:29.773Z,1002.97
2023-04-22T07:02:37.847Z,1002.99
2023-04-22T07:05:47.256Z,1003.00
2023-04-22T07:08:54.610Z,1002.93
2023-04-22T07:12:03.014Z,1002.89
2023-04-22T07:15:12.213Z,1002.91
2023-04-22T07:18:20.392Z,1002.88
2023-04-22T07:21:27.434Z,1002.84
2023-04-22T07:24:34.826Z,1002.82
2023-04-22T07:27:44.252Z,1002.77
2023-04-22T07:30:51.524Z,1002.89
2023-04-22T07:33:59.292Z,1002.70
2023-04-22T07:37:08.598Z,1002.74
2023-04-22T07:40:16.473Z,1002.69
2023-04-22T07:43:24.122Z,1002.65
2023-04-22T07:46:33.358Z,1002.58
2023-04-22T07:49:41.221Z,1002.66
2023-04-22T07:52:49.432Z,1002.70
2023-04-22T07:56:00.944Z,1002.67
2023-04-22T07:58:58.318Z,1002.69
2023-04-22T08:02:06.153Z,1002.62
2023-04-22T08:05:13.895Z,1002.73
2023-04-22T08:08:22.339Z,1002.74
2023-04-22T08:11:29.837Z,1002.65
2023-04-22T08:14:37.487Z,1002.60
2023-04-22T08:17:46.225Z,1002.63
2023-04-22T08:20:54.346Z,1002.56
2023-04-22T08:24:01.924Z,1002.46
2023-04-22T08:27:10.770Z,1002.44
2023-04-22T08:30:18.549Z,1002.50
2023-04-22T08:33:27.357Z,1002.47
2023-04-22T08:36:36.488Z,1002.46
2023-04-22T08:39:44.456Z,1002.35
2023-04-22T08:42:51.869Z,1002.36
2023-04-22T08:45:59.489Z,1002.37
2023-04-22T08:49:08.132Z,1002.30
2023-04-22T08:52:16.214Z,1002.31
2023-04-22T08:55:25.762Z,1002.30
2023-04-22T08:58:35.547Z,1002.25
2023-04-22T09:01:42.968Z,1002.28
2023-04-22T09:04:50.538Z,1002.19
2023-04-22T09:07:59.811Z,1002.17
2023-04-22T09:11:07.736Z,1002.19
2023-04-22T09:14:14.828Z,1002.15
2023-04-22T09:17:24.037Z,1002.18
2023-04-22T09:20:32.521Z,1002.13
2023-04-22T09:23:39.809Z,1002.12
2023-04-22T09:26:47.438Z,1002.12
2023-04-22T09:29:56.422Z,1002.11
2023-04-22T09:33:04.121Z,1002.06
2023-04-22T09:36:11.571Z,1002.03
2023-04-22T09:39:20.371Z,1001.97
2023-04-22T09:42:28.229Z,1001.93
2023-04-22T09:45:35.930Z,1001.87
2023-04-22T09:48:44.664Z,1001.91
2023-04-22T09:51:52.562Z,1001.83
2023-04-22T09:55:00.696Z,1001.79
2023-04-22T09:58:09.489Z,1001.72
2023-04-22T10:01:17.178Z,1001.69
2023-04-22T10:04:24.645Z,1001.70
2023-04-22T10:07:33.453Z,1001.63
2023-04-22T10:10:41.128Z,1001.60
2023-04-22T10:13:48.124Z,1001.54
2023-04-22T10:16:55.836Z,1001.52
2023-04-22T10:20:04.903Z,1001.47
2023-04-22T10:23:12.036Z,1001.40
2023-04-22T10:26:19.962Z,1001.35
2023-04-22T10:29:29.555Z,1001.26
2023-04-22T10:32:36.789Z,1001.22
2023-04-22T10:35:44.748Z,1001.23
2023-04-22T10:38:53.695Z,1001.18
2023-04-22T10:42:01.586Z,1001.07
2023-04-22T10:45:08.976Z,1001.17
2023-04-22T10:48:18.288Z,1001.11
2023-04-22T10:51:26.348Z,1001.03
2023-04-22T10:54:33.774Z,1000.97
2023-04-22T10:57:41.123Z,1000.98
2023-04-22T11:00:53.856Z,1000.89
2023-04-22T11:03:50.891Z,1000.91
2023-04-22T11:06:58.680Z,1000.78
2023-04-22T11:10:07.344Z,1000.77
2023-04-22T11:13:14.371Z,1000.76
2023-04-22T11:16:22.682Z,1000.72
2023-04-22T11:19:31.855Z,1000.71
2023-04-22T11:22:38.980Z,1000.62
2023-04-22T11:25:46.981Z,1000.59
2023-04-22T11:28:56.415Z,1000.44
2023-04-22T11:32:03.808Z,1000.53
2023-04-22T11:35:11.468Z,1000.64
2023-04-22T11:38:18.909Z,1000.54
2023-04-22T11:41:27.810Z,1000.50
2023-04-22T11:44:35.625Z,1000.53
2023-04-22T11:47:43.051Z,1000.46
2023-04-22T11:50:52.030Z,1000.36
2023-04-22T11:53:59.887Z,1000.35
2023-04-22T11:57:07.550Z,1000.36
2023-04-22T12:00:16.484Z,1000.47
2023-04-22T12:03:24.667Z,1000.45
2023-04-22T12:06:32.922Z,1000.32
2023-04-22T12:09:42.209Z,1000.23
2023-04-22T12:12:49.488Z,1000.32
2023-04-22T12:15:56.844Z,1000.28
2023-04-22T12:19:03.892Z,1000.27
2023-04-22T12:22:12.742Z,1000.21
2023-04-22T12:25:20.933Z,1000.25
2023-04-22T12:28:28.099Z,1000.12
2023-04-22T12:31:37.321Z,1000.08
2023-04-22T12:34:44.919Z,1000.10
2023-04-22T12:37:52.543Z,1000.11
2023-04-22T12:41:01.719Z,1000.04
2023-04-22T12:44:10.244Z,1000.05
2023-04-22T12:47:18.911Z,1000.05
2023-04-22T12:50:27.954Z,1000.00
2023-04-22T12:53:35.567Z,999.99
2023-04-22T12:56:43.377Z,999.87
2023-04-22T12:59:50.611Z,999.89
2023-04-22T13:02:59.142Z,999.77
2023-04-22T13:06:06.747Z,999.90
2023-04-22T13:09:14.143Z,999.82
2023-04-22T13:12:22.753Z,999.81
2023-04-22T13:15:30.552Z,999.73
2023-04-22T13:18:38.007Z,999.71
2023-04-22T13:21:46.785Z,999.70
2023-04-22T13:24:54.699Z,999.62
2023-04-22T13:28:01.713Z,999.66
2023-04-22T13:31:10.881Z,999.57
2023-04-22T13:34:18.654Z,999.63
2023-04-22T13:37:25.699Z,999.57
2023-04-22T13:40:35.012Z,999.51
2023-04-22T13:43:42.613Z,999.42
2023-04-22T13:46:49.652Z,999.50
2023-04-22T13:49:57.397Z,999.44
2023-04-22T13:53:06.418Z,999.43
2023-04-22T13:56:13.555Z,999.46
2023-04-22T13:59:21.216Z,999.48
2023-04-22T14:02:29.976Z,999.45
2023-04-22T14:05:37.413Z,999.37
2023-04-22T14:08:45.271Z,999.34
2023-04-22T14:11:54.073Z,999.35
2023-04-22T14:15:01.722Z,999.35
2023-04-22T14:18:09.693Z,999.34
2023-04-22T14:21:18.472Z,999.32
2023-04-22T14:24:26.098Z,999.18
2023-04-22T14:27:33.739Z,999.19
2023-04-22T14:30:41.555Z,999.23
2023-04-22T14:33:50.680Z,999.07
2023-04-22T14:36:58.310Z,999.17
2023-04-22T14:40:06.449Z,999.20
2023-04-22T14:43:15.456Z,999.12
2023-04-22T14:46:23.178Z,999.08
2023-04-22T14:49:33.185Z,999.08
2023-04-22T14:52:31.535Z,999.06
2023-04-22T14:55:38.928Z,998.98
2023-04-22T14:58:46.826Z,999.04
2023-04-22T15:01:55.388Z,998.87
2023-04-22T15:05:03.446Z,998.92
2023-04-22T15:08:11.548Z,998.88
2023-04-22T15:11:19.279Z,998.76
2023-04-22T15:14:28.314Z,998.77
2023-04-22T15:17:35.818Z,998.66
2023-04-22T15:20:43.171Z,998.71
2023-04-22T15:23:52.092Z,998.66
2023-04-22T15:26:59.528Z,998.58
2023-04-22T15:30:07.537Z,998.58
2023-04-22T15:33:16.227Z,998.56
2023-04-22T15:36:23.689Z,998.60
2023-04-22T15:39:31.757Z,998.73
2023-04-22T15:42:40.769Z,998.70
2023-04-22T15:45:48.312Z,998.65
2023-04-22T15:48:55.914Z,998.70
2023-04-22T15:52:03.656Z,998.69
2023-04-22T15:55:12.781Z,998.68
2023-04-22T15:58:20.640Z,998.70
2023-04-22T16:01:27.667Z,998.62
2023-04-22T16:04:36.983Z,998.61
2023-04-22T16:07:44.858Z,998.65
2023-04-22T16:10:52.104Z,998.56
2023-04-22T16:14:01.572Z,998.47
2023-04-22T16:17:09.448Z,998.57
2023-04-22T16:20:16.801Z,998.47
2023-04-22T16:23:25.878Z,998.47
2023-04-22T16:26:33.642Z,998.43
2023-04-22T16:29:40.998Z,998.38
2023-04-22T16:32:48.433Z,998.42
2023-04-22T16:35:57.323Z,998.35
2023-04-22T16:39:04.699Z,998.44
2023-04-22T16:42:11.987Z,998.44
2023-04-22T16:45:21.258Z,998.48
2023-04-22T16:48:28.985Z,998.49
2023-04-22T16:51:36.622Z,998.41
2023-04-22T16:54:45.520Z,998.47
2023-04-22T16:57:53.618Z,998.43
2023-04-22T17:01:00.744Z,998.36
2023-04-22T17:04:09.909Z,998.33
2023-04-22T17:07:17.670Z,998.36
2023-04-22T17:10:24.766Z,998.31
2023-04-22T17:13:34.097Z,998.33
2023-04-22T17:16:41.970Z,998.33
2023-04-22T17:19:49.390Z,998.36
2023-04-22T17:22:56.876Z,998.40
2023-04-22T17:26:06.135Z,998.33
2023-04-22T17:29:13.943Z,998.23
2023-04-22T17:32:21.477Z,998.30
2023-04-22T17:35:30.297Z,998.34
2023-04-22T17:38:38.274Z,998.24
2023-04-22T17:41:45.634Z,998.17
2023-04-22T17:44:54.471Z,998.28
2023-04-22T17:48:02.311Z,998.22
2023-04-22T17:51:10.102Z,998.31
2023-04-22T17:54:19.261Z,998.25
2023-04-22T17:57:27.303Z,998.26
2023-04-22T18:00:34.940Z,998.29
2023-04-22T18:03:42.686Z,998.25
2023-04-22T18:06:52.146Z,998.27
2023-04-22T18:09:59.471Z,998.30
2023-04-22T18:13:07.407Z,998.37
2023-04-22T18:16:17.046Z,998.40
2023-04-22T18:19:24.218Z,998.45
2023-04-22T18:22:32.570Z,998.48
2023-04-22T18:25:42.553Z,998.54
2023-04-22T18:28:49.717Z,998.53
2023-04-22T18:31:57.479Z,998.54
2023-04-22T18:35:06.216Z,998.57
2023-04-22T18:38:13.406Z,998.64
2023-04-22T18:41:21.343Z,998.63
2023-04-22T18:44:28.840Z,998.65
2023-04-22T18:47:37.833Z,998.65
2023-04-22T18:50:44.858Z,998.59
2023-04-22T18:53:52.654Z,998.64
2023-04-22T18:57:01.416Z,998.73
2023-04-22T19:00:09.426Z,998.61
2023-04-22T19:03:17.048Z,998.63
2023-04-22T19:06:25.958Z,998.77
2023-04-22T19:09:33.475Z,998.76
2023-04-22T19:12:41.275Z,998.88
2023-04-22T19:15:49.978Z,998.85
2023-04-22T19:18:57.076Z,998.85
2023-04-22T19:22:04.712Z,999.08
2023-04-22T19:25:13.561Z,999.04
2023-04-22T19:28:20.949Z,999.05
2023-04-22T19:31:28.658Z,998.98
2023-04-22T19:34:35.859Z,999.06
2023-04-22T19:37:45.192Z,999.07
2023-04-22T19:40:53.044Z,999.13
2023-04-22T19:44:00.029Z,999.16
2023-04-22T19:47:09.436Z,999.11
2023-04-22T19:50:19.050Z,999.17
2023-04-22T19:53:26.468Z,999.07
2023-04-22T19:56:35.342Z,999.15
2023-04-22T19:59:43.080Z,999.06
2023-04-22T20:02:50.465Z,999.16
2023-04-22T20:05:59.360Z,999.14
2023-04-22T20:09:06.859Z,999.10
2023-04-22T20:12:14.404Z,999.06
2023-04-22T20:15:22.001Z,999.00
2023-04-22T20:18:31.093Z,998.90
2023-04-22T20:21:38.856Z,999.00
2023-04-22T20:24:46.445Z,998.91
2023-04-22T20:27:55.226Z,998.97
2023-04-22T20:31:02.913Z,998.88
2023-04-22T20:34:10.249Z,998.83
2023-04-22T20:37:18.840Z,998.81
2023-04-22T20:40:27.302Z,998.75
2023-04-22T20:43:34.317Z,998.70
2023-04-22T20:46:43.401Z,998.66
2023-04-22T20:49:51.291Z,998.68
2023-04-22T20:52:58.252Z,998.62
2023-04-22T20:56:05.576Z,998.61
2023-04-22T20:59:14.678Z,998.63
2023-04-22T21:02:21.823Z,998.62
2023-04-22T21:05:29.659Z,998.65
2023-04-22T21:08:38.517Z,998.68
2023-04-22T21:11:46.016Z,998.67
2023-04-22T21:14:53.746Z,998.64
2023-04-22T21:18:02.643Z,998.62
2023-04-22T21:21:10.145Z,998.71
2023-04-22T21:24:17.507Z,998.75
2023-04-22T21:27:26.322Z,998.79
2023-04-22T21:30:34.076Z,998.80
2023-04-22T21:33:41.136Z,998.76
2023-04-22T21:36:48.827Z,998.78
2023-04-22T21:39:58.152Z,998.82
2023-04-22T21:43:05.182Z,998.79
2023-04-22T21:46:12.492Z,998.81
2023-04-22T21:49:21.376Z,998.80
2023-04-22T21:52:28.440Z,998.81
2023-04-22T21:55:36.196Z,998.81
2023-04-22T21:58:45.261Z,998.79
2023-04-22T22:01:52.475Z,998.74
2023-04-22T22:05:00.256Z,998.77
2023-04-22T22:08:09.081Z,998.76
2023-04-22T22:11:27.695Z,998.77
2023-04-22T22:14:21.579Z,998.81
2023-04-22T22:17:30.149Z,998.85
2023-04-22T22:20:37.693Z,998.84
2023-04-22T22:23:45.756Z,998.87
2023-04-22T22:26:53.119Z,998.81
2023-04-22T22:30:02.027Z,998.88
2023-04-22T22:33:09.355Z,998.92
2023-04-22T22:36:17.108Z,998.94
2023-04-22T22:39:26.028Z,999.00
2023-04-22T22:42:33.617Z,998.98
2023-04-22T22:45:41.418Z,998.92
2023-04-22T22:48:49.732Z,999.01
2023-04-22T22:51:57.209Z,999.07
2023-04-22T22:55:04.913Z,999.10
2023-04-22T22:58:13.604Z,999.08
2023-04-22T23:01:21.019Z,999.06
2023-04-22T23:04:28.892Z,999.09
2023-04-22T23:07:36.001Z,999.13
2023-04-22T23:10:45.184Z,999.11
2023-04-22T23:13:53.165Z,999.08
2023-04-22T23:17:00.357Z,999.02
2023-04-22T23:20:09.706Z,999.06
2023-04-22T23:23:17.451Z,999.04
2023-04-22T23:26:24.436Z,999.05
2023-04-22T23:29:33.361Z,999.04
2023-04-22T23:32:40.717Z,999.07
2023-04-22T23:35:48.053Z,999.02
2023-04-22T23:38:58.044Z,999.08
2023-04-22T23:42:05.498Z,999.08
2023-04-22T23:45:12.923Z,999.04
2023-04-22T23:48:20.289Z,999.07
2023-04-22T23:51:29.213Z,999.10
2023-04-22T23:54:36.655Z,999.15
2023-04-22T23:57:44.358Z,999.08
